Terminal Aerodrome Forecast
Issued by NWS

Current Version | Previous Version | Graphics & Text | Print | Product List | Glossary On
Versions: 1 2 3 4 5 6 7 8 9 10 11 12 13 14 15 16 17 18 19 20 21 22 23
000
FTUS41 KPBZ 262320
TAFMGW
TAF
KMGW 262320Z 2700/2724 28005KT P6SM BKN050
     FM270400 VRB03KT P6SM VCSH BKN040
     FM270700 12004KT 3SM -SHRA VCTS BKN025CB
     FM271100 11003KT P6SM VCSH BKN015
     FM271600 27003KT P6SM BKN025
     FM271900 29005KT P6SM BKN040=

USA.gov is the U.S. government's official web portal to all federal, state and local government web resources and services.